createdAt,value
2019-06-07T00:00:56.413Z,6.63
2019-06-07T00:03:30.434Z,6.40
2019-06-07T00:05:59.949Z,6.63
2019-06-07T00:08:30.758Z,6.57
2019-06-07T00:11:00.851Z,7.20
2019-06-07T00:13:31.990Z,7.63
2019-06-07T00:16:02.586Z,7.87
2019-06-07T00:18:35.799Z,7.70
2019-06-07T00:21:05.240Z,6.47
2019-06-07T00:23:34.964Z,6.43
2019-06-07T00:26:04.989Z,6.30
2019-06-07T00:28:36.546Z,6.63
2019-06-07T00:31:06.222Z,6.40
2019-06-07T00:33:35.761Z,6.93
2019-06-07T00:36:05.095Z,7.43
2019-06-07T00:38:34.948Z,6.37
2019-06-07T00:41:04.945Z,6.17
2019-06-07T00:43:37.244Z,6.07
2019-06-07T00:46:06.754Z,6.20
2019-06-07T00:48:37.903Z,6.30
2019-06-07T00:51:07.875Z,7.27
2019-06-07T00:53:42.042Z,5.40
2019-06-07T00:56:16.322Z,5.33
2019-06-07T00:58:46.661Z,5.43
2019-06-07T01:01:20.947Z,5.60
2019-06-07T01:03:52.991Z,5.93
2019-06-07T01:06:24.929Z,7.33
2019-06-07T01:08:58.392Z,6.63
2019-06-07T01:11:27.905Z,5.17
2019-06-07T01:13:57.677Z,4.33
2019-06-07T01:16:28.214Z,3.53
2019-06-07T01:19:01.294Z,3.83
2019-06-07T01:21:33.449Z,3.70
2019-06-07T01:24:11.916Z,5.90
2019-06-07T01:26:34.142Z,6.47
2019-06-07T01:29:04.219Z,7.17
2019-06-07T01:31:34.155Z,5.30
2019-06-07T01:34:04.396Z,3.93
2019-06-07T01:36:35.066Z,4.83
2019-06-07T01:39:07.844Z,3.70
2019-06-07T01:41:40.625Z,4.00
2019-06-07T01:44:13.102Z,4.03
2019-06-07T01:46:43.315Z,4.80
2019-06-07T01:49:13.624Z,4.50
2019-06-07T01:51:43.933Z,5.47
2019-06-07T01:56:51.703Z,7.50
2019-06-07T01:59:23.122Z,6.93
2019-06-07T02:01:52.616Z,6.27
2019-06-07T02:04:23.395Z,5.53
2019-06-07T02:06:57.019Z,5.70
2019-06-07T02:09:30.115Z,7.80
2019-06-07T02:12:02.307Z,9.10
2019-06-07T02:14:33.472Z,12.33
2019-06-07T02:17:04.562Z,12.17
2019-06-07T02:19:36.235Z,11.90
2019-06-07T02:22:09.268Z,16.87
2019-06-07T02:24:38.767Z,12.33
2019-06-07T02:27:09.900Z,15.60
2019-06-07T02:29:39.344Z,17.07
2019-06-07T02:32:11.334Z,16.57
2019-06-07T02:34:40.652Z,19.93
2019-06-07T02:37:11.619Z,21.43
2019-06-07T02:39:42.880Z,19.93
2019-06-07T02:42:12.300Z,22.70
2019-06-07T02:44:43.290Z,21.40
2019-06-07T02:47:13.883Z,21.13
2019-06-07T02:49:44.558Z,20.97
2019-06-07T02:52:14.677Z,18.80
2019-06-07T02:54:45.205Z,19.73
2019-06-07T02:57:16.339Z,21.10
2019-06-07T03:00:06.811Z,19.70
2019-06-07T03:02:20.191Z,19.87
2019-06-07T03:04:49.671Z,19.50
2019-06-07T03:07:18.966Z,19.47
2019-06-07T03:09:49.781Z,19.40
2019-06-07T03:12:22.444Z,21.00
2019-06-07T03:14:53.644Z,19.87
2019-06-07T03:17:55.707Z,19.70
2019-06-07T03:20:31.627Z,19.60
2019-06-07T03:23:05.498Z,19.77
2019-06-07T03:25:39.727Z,19.67
2019-06-07T03:28:10.033Z,21.70
2019-06-07T03:30:59.618Z,19.63
2019-06-07T03:33:12.364Z,18.63
2019-06-07T03:35:42.058Z,18.43
2019-06-07T03:38:16.300Z,18.03
2019-06-07T03:40:46.309Z,18.80
2019-06-07T03:43:16.048Z,20.13
2019-06-07T03:45:46.075Z,19.03
2019-06-07T03:48:15.555Z,19.30
2019-06-07T03:50:45.326Z,19.20
2019-06-07T03:53:14.568Z,19.70
2019-06-07T03:55:45.260Z,18.30
2019-06-07T03:58:31.618Z,19.17
2019-06-07T04:00:52.358Z,19.37
2019-06-07T04:03:33.725Z,18.80
2019-06-07T04:05:53.315Z,19.27
2019-06-07T04:08:23.831Z,19.10
2019-06-07T04:11:00.294Z,19.10
2019-06-07T04:13:24.808Z,17.77
2019-06-07T04:15:55.299Z,18.23
2019-06-07T04:18:24.551Z,18.13
2019-06-07T04:20:54.023Z,17.53
2019-06-07T04:23:28.140Z,17.47
2019-06-07T04:25:57.092Z,17.47
2019-06-07T04:29:16.519Z,17.70
2019-06-07T04:30:58.397Z,19.03
2019-06-07T04:33:28.912Z,18.33
2019-06-07T04:35:59.338Z,17.63
2019-06-07T04:38:32.851Z,17.50
2019-06-07T04:41:03.752Z,17.20
2019-06-07T04:43:33.518Z,18.30
2019-06-07T04:46:04.744Z,16.43
2019-06-07T04:48:41.899Z,18.13
2019-06-07T04:51:10.971Z,16.53
2019-06-07T04:53:43.347Z,16.13
2019-06-07T04:56:12.509Z,16.37
2019-06-07T04:58:43.244Z,14.67
2019-06-07T05:01:26.684Z,14.03
2019-06-07T05:03:44.656Z,15.27
2019-06-07T05:06:13.989Z,14.63
2019-06-07T05:08:44.011Z,14.50
2019-06-07T05:11:14.125Z,15.23
2019-06-07T05:13:44.257Z,14.67
2019-06-07T05:16:21.064Z,15.17
2019-06-07T05:18:51.275Z,13.47
2019-06-07T05:21:21.289Z,14.60
2019-06-07T05:24:10.333Z,14.07
2019-06-07T05:26:23.013Z,14.00
2019-06-07T05:28:52.845Z,13.73
2019-06-07T05:31:22.032Z,13.47
2019-06-07T05:33:53.004Z,13.20
2019-06-07T05:36:23.328Z,12.97
2019-06-07T05:38:54.499Z,12.50
2019-06-07T05:41:24.596Z,11.70
2019-06-07T05:44:11.742Z,11.97
2019-06-07T05:46:25.676Z,12.27
2019-06-07T05:48:56.402Z,13.00
2019-06-07T05:51:25.747Z,13.00
2019-06-07T05:53:58.388Z,12.23
2019-06-07T05:56:28.131Z,11.57
2019-06-07T05:58:59.851Z,11.13
2019-06-07T06:01:45.970Z,11.33
2019-06-07T06:04:01.078Z,11.13
2019-06-07T06:06:30.824Z,9.60
2019-06-07T06:09:13.413Z,9.93
2019-06-07T06:11:45.931Z,8.80
2019-06-07T06:14:08.287Z,8.27
2019-06-07T06:16:39.554Z,7.80
2019-06-07T06:19:09.050Z,7.63
2019-06-07T06:21:40.955Z,8.23
2019-06-07T06:24:10.243Z,7.40
2019-06-07T06:26:46.175Z,7.43
2019-06-07T06:29:12.067Z,7.10
2019-06-07T06:32:27.164Z,7.23
2019-06-07T06:34:14.587Z,6.67
2019-06-07T06:36:47.283Z,6.23
2019-06-07T06:39:15.727Z,6.67
2019-06-07T06:41:56.777Z,6.20
2019-06-07T06:44:16.873Z,5.97
2019-06-07T06:46:55.988Z,5.27
2019-06-07T06:49:18.645Z,5.13
2019-06-07T06:51:53.339Z,5.63
2019-06-07T06:54:39.379Z,5.83
2019-06-07T06:56:52.804Z,5.77
2019-06-07T06:59:38.217Z,5.87
2019-06-07T07:01:55.415Z,6.07
2019-06-07T07:04:24.654Z,6.60
2019-06-07T07:06:55.328Z,6.47
2019-06-07T07:09:25.314Z,6.10
2019-06-07T07:12:10.266Z,6.43
2019-06-07T07:14:26.513Z,6.50
2019-06-07T07:16:57.034Z,6.80
2019-06-07T07:19:26.445Z,7.23
2019-06-07T07:21:55.638Z,6.93
2019-06-07T07:24:25.088Z,6.57
2019-06-07T07:26:58.276Z,6.43
2019-06-07T07:29:25.972Z,6.43
2019-06-07T07:31:56.608Z,6.60
2019-06-07T07:34:36.350Z,6.80
2019-06-07T07:36:59.976Z,5.90
2019-06-07T07:39:29.567Z,6.30
2019-06-07T07:42:17.833Z,6.20
2019-06-07T07:44:30.229Z,6.20
2019-06-07T07:46:59.409Z,4.90
2019-06-07T07:49:28.909Z,4.07
2019-06-07T07:51:59.129Z,4.60
2019-06-07T07:54:29.011Z,4.23
2019-06-07T07:56:58.742Z,4.40
2019-06-07T07:59:41.963Z,3.90
2019-06-07T08:01:59.652Z,3.83
2019-06-07T08:05:12.195Z,3.80
2019-06-07T08:07:00.719Z,4.03
2019-06-07T08:09:30.523Z,4.23
2019-06-07T08:12:02.580Z,4.07
2019-06-07T08:14:32.976Z,4.30
2019-06-07T08:17:03.433Z,4.10
2019-06-07T08:19:34.630Z,4.27
2019-06-07T08:22:03.795Z,4.10
2019-06-07T08:24:32.975Z,3.83
2019-06-07T08:27:24.258Z,3.90
2019-06-07T08:29:45.118Z,4.03
2019-06-07T08:32:05.909Z,4.13
2019-06-07T08:34:35.419Z,4.30
2019-06-07T08:37:05.446Z,3.87
2019-06-07T08:39:35.184Z,3.93
2019-06-07T08:42:15.591Z,4.33
2019-06-07T08:44:37.894Z,4.13
2019-06-07T08:47:19.897Z,3.57
2019-06-07T08:49:39.719Z,4.20
2019-06-07T08:52:12.444Z,4.13
2019-06-07T08:54:43.522Z,4.03
2019-06-07T08:57:21.181Z,4.10
2019-06-07T08:59:47.031Z,3.53
2019-06-07T09:02:23.716Z,4.00
2019-06-07T09:04:50.143Z,4.60
2019-06-07T09:07:22.120Z,4.03
2019-06-07T09:09:58.511Z,4.13
2019-06-07T09:12:26.075Z,3.97
2019-06-07T09:15:13.046Z,3.73
2019-06-07T09:17:32.323Z,3.80
2019-06-07T09:20:10.003Z,3.37
2019-06-07T09:22:36.142Z,3.50
2019-06-07T09:25:20.086Z,3.40
2019-06-07T09:27:40.208Z,3.07
2019-06-07T09:30:16.466Z,2.80
2019-06-07T09:32:40.675Z,3.13
2019-06-07T09:35:16.560Z,3.23
2019-06-07T09:40:27.081Z,3.10
2019-06-07T09:43:38.348Z,3.03
2019-06-07T09:45:22.455Z,3.00
2019-06-07T09:47:53.053Z,3.10
2019-06-07T09:50:24.367Z,2.87
2019-06-07T09:52:58.401Z,2.80
2019-06-07T09:55:26.836Z,2.93
2019-06-07T09:58:03.632Z,2.77
2019-06-07T10:00:41.544Z,2.80
2019-06-07T10:03:13.952Z,2.80
2019-06-07T10:05:31.986Z,2.80
2019-06-07T10:08:22.321Z,2.30
2019-06-07T10:13:04.179Z,2.67
2019-06-07T10:15:33.609Z,2.70
2019-06-07T10:18:04.792Z,2.87
2019-06-07T10:20:38.440Z,2.63
2019-06-07T10:23:08.212Z,2.53
2019-06-07T10:25:38.167Z,2.93
2019-06-07T10:28:08.213Z,2.80
2019-06-07T10:30:37.491Z,2.40
2019-06-07T10:33:07.019Z,2.50
2019-06-07T10:35:37.023Z,2.50
2019-06-07T10:38:06.722Z,3.13
2019-06-07T10:40:37.752Z,3.00
2019-06-07T10:43:14.447Z,2.90
2019-06-07T10:45:45.803Z,2.30
2019-06-07T10:48:16.261Z,2.87
2019-06-07T10:50:47.099Z,2.77
2019-06-07T10:53:18.386Z,2.70
2019-06-07T10:55:56.562Z,2.67
2019-06-07T10:58:26.724Z,2.63
2019-06-07T11:00:56.897Z,2.43
2019-06-07T11:03:26.108Z,2.53
2019-06-07T11:05:55.277Z,2.90
2019-06-07T11:08:24.477Z,3.30
2019-06-07T11:10:53.670Z,2.77
2019-06-07T11:13:22.860Z,2.83
2019-06-07T11:15:52.110Z,2.60
2019-06-07T11:18:21.290Z,2.70
2019-06-07T11:20:50.995Z,2.70
2019-06-07T11:23:20.189Z,2.80
2019-06-07T11:25:49.668Z,3.00
2019-06-07T11:28:19.637Z,3.93
2019-06-07T11:30:49.278Z,2.80
2019-06-07T11:33:18.871Z,2.87
2019-06-07T11:35:50.444Z,2.90
2019-06-07T11:38:19.952Z,2.90
2019-06-07T11:40:49.144Z,2.77
2019-06-07T11:43:19.060Z,3.00
2019-06-07T11:45:48.309Z,2.97
2019-06-07T11:48:18.625Z,3.60
2019-06-07T11:50:48.152Z,2.60
2019-06-07T11:53:19.801Z,3.30
2019-06-07T11:55:49.062Z,3.00
2019-06-07T11:58:21.566Z,2.77
2019-06-07T12:00:53.271Z,3.43
2019-06-07T12:03:23.210Z,2.73
2019-06-07T12:05:52.656Z,2.80
2019-06-07T12:08:21.935Z,3.20
2019-06-07T12:10:51.449Z,3.10
2019-06-07T12:13:20.889Z,2.73
2019-06-07T12:15:53.957Z,2.73
2019-06-07T12:18:24.280Z,3.10
2019-06-07T12:20:53.836Z,2.83
2019-06-07T12:23:23.369Z,2.77
2019-06-07T12:25:52.855Z,2.77
2019-06-07T12:28:22.986Z,2.67
2019-06-07T12:30:55.073Z,3.10
2019-06-07T12:33:23.045Z,2.53
2019-06-07T12:35:53.944Z,2.70
2019-06-07T12:38:23.371Z,2.80
2019-06-07T12:40:57.562Z,2.60
2019-06-07T12:43:24.399Z,2.60
2019-06-07T12:45:53.860Z,2.60
2019-06-07T12:48:26.127Z,2.80
2019-06-07T12:50:55.822Z,2.63
2019-06-07T12:53:28.090Z,2.70
2019-06-07T12:55:55.936Z,2.90
2019-06-07T12:58:33.699Z,2.90
2019-06-07T13:00:59.935Z,2.70
2019-06-07T13:03:30.012Z,2.37
2019-06-07T13:06:01.964Z,2.80
2019-06-07T13:08:31.148Z,2.93
2019-06-07T13:11:13.966Z,3.30
2019-06-07T13:13:31.865Z,3.00
2019-06-07T13:16:03.869Z,3.10
2019-06-07T13:18:34.906Z,2.60
2019-06-07T13:21:04.410Z,3.10
2019-06-07T13:23:34.178Z,2.93
2019-06-07T13:26:04.132Z,3.27
2019-06-07T13:28:33.789Z,2.87
2019-06-07T13:31:05.055Z,3.00
2019-06-07T13:33:38.636Z,2.90
2019-06-07T13:36:05.292Z,2.70
2019-06-07T13:38:34.509Z,2.83
2019-06-07T13:41:05.695Z,3.07
2019-06-07T13:43:34.896Z,3.27
2019-06-07T13:46:04.347Z,3.00
2019-06-07T13:48:33.536Z,2.83
2019-06-07T13:51:03.288Z,3.27
2019-06-07T13:53:32.750Z,3.20
2019-06-07T13:56:02.871Z,3.00
2019-06-07T13:58:32.363Z,2.87
2019-06-07T14:01:01.551Z,3.20
2019-06-07T14:03:33.884Z,3.20
2019-06-07T14:06:02.437Z,2.93
2019-06-07T14:08:31.639Z,3.33
2019-06-07T14:11:02.155Z,3.23
2019-06-07T14:13:32.579Z,3.60
2019-06-07T14:16:03.880Z,3.73
2019-06-07T14:18:34.765Z,3.47
2019-06-07T14:21:05.918Z,3.07
2019-06-07T14:23:48.187Z,3.33
2019-06-07T14:26:07.130Z,3.70
2019-06-07T14:28:39.874Z,3.53
2019-06-07T14:31:09.126Z,3.10
2019-06-07T14:33:41.456Z,3.30
2019-06-07T14:36:17.816Z,3.13
2019-06-07T14:38:51.972Z,3.60
2019-06-07T14:41:25.164Z,3.47
2019-06-07T14:43:56.220Z,3.47
2019-06-07T14:46:25.858Z,3.00
2019-06-07T14:48:58.325Z,3.23
2019-06-07T14:51:28.546Z,3.40
2019-06-07T14:53:58.279Z,3.27
2019-06-07T14:56:29.953Z,3.07
2019-06-07T14:59:00.940Z,3.30
2019-06-07T15:01:33.486Z,3.13
2019-06-07T15:04:05.481Z,3.53
2019-06-07T15:06:35.669Z,3.10
2019-06-07T15:09:06.204Z,3.20
2019-06-07T15:11:35.365Z,3.23
2019-06-07T15:14:04.559Z,3.40
2019-06-07T15:16:33.920Z,3.30
2019-06-07T15:19:03.066Z,3.03
2019-06-07T15:21:32.971Z,3.33
2019-06-07T15:24:03.257Z,3.20
2019-06-07T15:26:40.873Z,3.33
2019-06-07T15:29:10.229Z,3.70
2019-06-07T15:31:44.457Z,3.50
2019-06-07T15:34:14.852Z,3.27
2019-06-07T15:36:54.511Z,3.33
2019-06-07T15:39:23.678Z,3.17
2019-06-07T15:41:53.029Z,3.03
2019-06-07T15:44:22.533Z,3.33
2019-06-07T15:46:52.908Z,3.23
2019-06-07T15:49:22.109Z,3.40
2019-06-07T15:51:52.152Z,3.20
2019-06-07T15:54:21.359Z,3.77
2019-06-07T15:56:50.576Z,3.70
2019-06-07T15:59:20.160Z,3.70
2019-06-07T16:01:57.382Z,3.50
2019-06-07T16:04:29.575Z,3.50
2019-06-07T16:07:01.931Z,3.53
2019-06-07T16:09:32.301Z,3.30
2019-06-07T16:12:06.422Z,3.60
2019-06-07T16:14:36.936Z,3.97
2019-06-07T16:17:06.207Z,3.20
2019-06-07T16:19:39.842Z,4.00
2019-06-07T16:22:06.729Z,3.47
2019-06-07T16:24:35.913Z,3.87
2019-06-07T16:27:05.217Z,3.60
2019-06-07T16:29:34.653Z,3.73
2019-06-07T16:32:04.638Z,3.40
2019-06-07T16:34:35.018Z,3.70
2019-06-07T16:37:06.899Z,3.30
2019-06-07T16:39:36.158Z,3.77
2019-06-07T16:42:05.387Z,3.37
2019-06-07T16:44:45.143Z,3.13
2019-06-07T16:47:14.849Z,3.60
2019-06-07T16:49:45.088Z,3.53
2019-06-07T16:52:15.006Z,3.80
2019-06-07T16:54:45.875Z,3.70
2019-06-07T16:57:15.428Z,3.70
2019-06-07T16:59:48.893Z,3.50
2019-06-07T17:02:16.135Z,3.80
2019-06-07T17:04:45.697Z,3.63
2019-06-07T17:07:14.893Z,3.30
2019-06-07T17:09:45.753Z,3.33
2019-06-07T17:12:15.908Z,3.50
2019-06-07T17:14:47.124Z,3.83
2019-06-07T17:17:16.301Z,3.53
2019-06-07T17:19:45.504Z,3.60
2019-06-07T17:22:15.843Z,3.60
2019-06-07T17:24:45.504Z,3.50
2019-06-07T17:30:09.732Z,3.57
2019-06-07T17:32:51.821Z,4.03
2019-06-07T17:35:13.690Z,3.73
2019-06-07T17:37:49.154Z,3.67
2019-06-07T17:40:22.375Z,3.80
2019-06-07T17:42:51.717Z,3.87
2019-06-07T17:45:31.478Z,3.77
2019-06-07T17:48:05.216Z,5.83
2019-06-07T17:50:35.760Z,3.47
2019-06-07T17:53:09.198Z,3.00
2019-06-07T17:55:52.010Z,3.80
2019-06-07T17:58:22.427Z,2.20
2019-06-07T18:00:53.998Z,3.63
2019-06-07T18:03:25.595Z,3.00
2019-06-07T18:07:09.500Z,2.47
2019-06-07T18:09:39.404Z,1.90
2019-06-07T18:12:08.592Z,2.07
2019-06-07T18:14:38.903Z,1.50
2019-06-07T18:17:08.069Z,1.60
2019-06-07T18:19:37.251Z,1.40
2019-06-07T18:22:06.712Z,1.70
2019-06-07T18:24:36.232Z,1.40
2019-06-07T18:27:07.197Z,1.60
2019-06-07T18:29:36.892Z,1.50
2019-06-07T18:32:06.245Z,1.87
2019-06-07T18:34:38.141Z,1.63
2019-06-07T18:37:07.780Z,1.40
2019-06-07T18:39:37.406Z,1.50
2019-06-07T18:42:06.699Z,1.30
2019-06-07T18:44:35.991Z,1.30
2019-06-07T18:47:07.679Z,0.90
2019-06-07T18:49:36.946Z,0.80
2019-06-07T18:52:16.057Z,0.83
2019-06-07T18:54:48.841Z,0.90
2019-06-07T18:57:18.211Z,0.80
2019-06-07T18:59:48.272Z,0.70
2019-06-07T19:02:17.766Z,0.90
2019-06-07T19:04:50.661Z,0.90
2019-06-07T19:07:20.639Z,0.90
2019-06-07T19:09:50.761Z,1.20
2019-06-07T19:12:21.481Z,0.80
2019-06-07T19:14:51.828Z,0.83
2019-06-07T19:17:21.050Z,1.00
2019-06-07T19:19:50.376Z,1.10
2019-06-07T19:22:19.647Z,1.00
2019-06-07T19:24:49.991Z,0.93
2019-06-07T19:27:19.630Z,0.90
2019-06-07T19:29:48.859Z,0.90
2019-06-07T19:32:19.598Z,1.10
2019-06-07T19:34:49.384Z,1.13
2019-06-07T19:37:18.597Z,1.10
2019-06-07T19:39:47.758Z,0.87
2019-06-07T19:42:16.980Z,0.90
2019-06-07T19:44:54.483Z,1.13
2019-06-07T19:48:20.385Z,1.10
